SAS3A LKPR-ESSA
Flight info
| Callsign | SAS3A |
|---|---|
| Flight time | N/A |
| Altitude | 36000 |
| Route | VENOX DCT DEKOV Y621 GARKI DCT POGAB DCT RENKI/N0446F350 L132 BODLA DCT GORPI DCT ARMOD Z228 NILUG |
| Aircraft | B738/M-SDE2E3FGHIRWXY/LB1 |
Departure
| Time | 2026-05-06 17:34 |
|---|---|
| Airport | Václav Havel Airport Prague (LKPR) |
Arrival
| Time | N/A |
|---|---|
| Airport | Stockholm-Arlanda Airport (ESSA) |
| Time | Latitude | Longitude | Altitude | Speed | Heading |
|---|---|---|---|---|---|
| 2026-05-06 16:58 | 50.10817 | 14.26520 | 1176 ft | 0 kts | 34° |
| 2026-05-06 17:18 | 50.10814 | 14.26516 | 1176 ft | 3 kts | 35° |
| 2026-05-06 17:18 | 50.10794 | 14.26495 | 984 ft | 3 kts | 34° |
| 2026-05-06 17:18 | 50.10773 | 14.26481 | 1176 ft | 4 kts | 343° |
| 2026-05-06 17:19 | 50.10754 | 14.26504 | 1176 ft | 3 kts | 304° |
| 2026-05-06 17:19 | 50.10749 | 14.26515 | 1176 ft | 0 kts | 304° |
| 2026-05-06 17:23 | 50.10750 | 14.26511 | 1176 ft | 2 kts | 304° |
| 2026-05-06 17:23 | 50.10767 | 14.26473 | 1176 ft | 7 kts | 303° |
| 2026-05-06 17:23 | 50.10807 | 14.26381 | 1176 ft | 13 kts | 304° |
| 2026-05-06 17:24 | 50.10826 | 14.26301 | 1176 ft | 6 kts | 258° |
| 2026-05-06 17:24 | 50.10788 | 14.26238 | 1176 ft | 11 kts | 218° |
| 2026-05-06 17:24 | 50.10712 | 14.26156 | 1176 ft | 16 kts | 216° |
| 2026-05-06 17:24 | 50.10643 | 14.26086 | 1176 ft | 9 kts | 212° |
| 2026-05-06 17:25 | 50.10593 | 14.26035 | 1176 ft | 1 kts | 213° |
| 2026-05-06 17:25 | 50.10587 | 14.26029 | 1177 ft | 2 kts | 214° |
| 2026-05-06 17:25 | 50.10586 | 14.26028 | 1177 ft | 0 kts | 214° |
| 2026-05-06 17:26 | 50.10562 | 14.26003 | 1179 ft | 7 kts | 213° |
| 2026-05-06 17:26 | 50.10505 | 14.25987 | 1183 ft | 10 kts | 158° |
| 2026-05-06 17:27 | 50.10444 | 14.26099 | 1185 ft | 16 kts | 125° |
| 2026-05-06 17:27 | 50.10369 | 14.26250 | 1188 ft | 21 kts | 128° |
| 2026-05-06 17:27 | 50.10265 | 14.26465 | 1193 ft | 28 kts | 128° |
| 2026-05-06 17:27 | 50.10139 | 14.26731 | 1197 ft | 29 kts | 128° |
| 2026-05-06 17:28 | 50.10031 | 14.26949 | 1202 ft | 7 kts | 126° |
| 2026-05-06 17:28 | 50.09985 | 14.27049 | 1204 ft | 16 kts | 128° |
| 2026-05-06 17:28 | 50.09902 | 14.27218 | 1203 ft | 25 kts | 126° |
| 2026-05-06 17:28 | 50.09767 | 14.27450 | 1205 ft | 32 kts | 135° |
| 2026-05-06 17:29 | 50.09597 | 14.27709 | 1207 ft | 32 kts | 136° |
| 2026-05-06 17:29 | 50.09427 | 14.27969 | 1216 ft | 36 kts | 135° |
| 2026-05-06 17:29 | 50.09296 | 14.28173 | 1223 ft | 20 kts | 136° |
| 2026-05-06 17:29 | 50.09202 | 14.28287 | 1228 ft | 20 kts | 166° |
| 2026-05-06 17:30 | 50.09141 | 14.28265 | 1234 ft | 0 kts | 219° |
| 2026-05-06 17:31 | 50.09131 | 14.28252 | 1235 ft | 5 kts | 221° |
| 2026-05-06 17:31 | 50.09088 | 14.28166 | 1234 ft | 14 kts | 241° |
| 2026-05-06 17:31 | 50.09089 | 14.28076 | 1231 ft | 7 kts | 307° |
| 2026-05-06 17:31 | 50.09130 | 14.28002 | 1232 ft | 1 kts | 300° |
| 2026-05-06 17:32 | 50.09149 | 14.27957 | 1232 ft | 0 kts | 307° |
| 2026-05-06 17:33 | 50.09162 | 14.27930 | 1232 ft | 19 kts | 308° |
| 2026-05-06 17:33 | 50.09430 | 14.27373 | 1217 ft | 107 kts | 308° |
| 2026-05-06 17:33 | 50.10034 | 14.26123 | 1220 ft | 178 kts | 306° |
| 2026-05-06 17:34 | 50.10870 | 14.24426 | 1658 ft | 211 kts | 307° |
| 2026-05-06 17:34 | 50.11743 | 14.22591 | 2629 ft | 206 kts | 304° |
| 2026-05-06 17:34 | 50.12523 | 14.20836 | 3893 ft | 190 kts | 303° |
| 2026-05-06 17:34 | 50.13296 | 14.19112 | 4668 ft | 197 kts | 303° |
| 2026-05-06 17:35 | 50.14018 | 14.17315 | 5529 ft | 195 kts | 304° |
| 2026-05-06 17:35 | 50.14854 | 14.15652 | 6362 ft | 194 kts | 308° |
| 2026-05-06 17:35 | 50.15711 | 14.14029 | 7165 ft | 193 kts | 308° |
| 2026-05-06 17:36 | 50.17541 | 14.10615 | 7994 ft | 228 kts | 321° |
| 2026-05-06 17:36 | 50.19079 | 14.09771 | 8166 ft | 249 kts | 359° |
| 2026-05-06 17:36 | 50.20864 | 14.09977 | 8405 ft | 265 kts | 5° |
| 2026-05-06 17:36 | 50.22706 | 14.10271 | 8822 ft | 273 kts | 5° |
| 2026-05-06 17:37 | 50.24649 | 14.10554 | 9072 ft | 290 kts | 5° |
| 2026-05-06 17:37 | 50.26700 | 14.10815 | 9544 ft | 301 kts | 4° |
| 2026-05-06 17:37 | 50.28792 | 14.11050 | 10315 ft | 304 kts | 4° |
| 2026-05-06 17:37 | 50.30970 | 14.11271 | 10583 ft | 325 kts | 3° |
| 2026-05-06 17:38 | 50.33298 | 14.11491 | 10781 ft | 345 kts | 3° |
| 2026-05-06 17:38 | 50.35735 | 14.11709 | 11219 ft | 355 kts | 3° |
| 2026-05-06 17:38 | 50.38220 | 14.11926 | 11822 ft | 359 kts | 3° |
| 2026-05-06 17:38 | 50.40721 | 14.12140 | 12445 ft | 361 kts | 3° |
| 2026-05-06 17:39 | 50.43239 | 14.12355 | 13016 ft | 365 kts | 3° |
| 2026-05-06 17:39 | 50.45793 | 14.12572 | 13558 ft | 369 kts | 3° |
| 2026-05-06 17:39 | 50.48369 | 14.12791 | 13975 ft | 372 kts | 3° |
| 2026-05-06 17:39 | 50.50962 | 14.13012 | 13987 ft | 373 kts | 3° |
| 2026-05-06 17:40 | 50.53556 | 14.13233 | 14000 ft | 373 kts | 3° |
| 2026-05-06 17:40 | 50.56166 | 14.13504 | 14342 ft | 378 kts | 6° |
| 2026-05-06 17:40 | 50.58779 | 14.14032 | 14941 ft | 378 kts | 8° |
| 2026-05-06 17:40 | 50.61377 | 14.14673 | 15453 ft | 380 kts | 8° |
| 2026-05-06 17:41 | 50.64018 | 14.15347 | 15969 ft | 385 kts | 8° |
| 2026-05-06 17:41 | 50.66661 | 14.16012 | 16494 ft | 386 kts | 9° |
| 2026-05-06 17:41 | 50.69329 | 14.16679 | 16876 ft | 390 kts | 8° |
| 2026-05-06 17:41 | 50.72019 | 14.17339 | 17272 ft | 393 kts | 8° |
| 2026-05-06 17:42 | 50.74694 | 14.17986 | 17673 ft | 395 kts | 8° |
| 2026-05-06 17:42 | 50.77421 | 14.18643 | 18062 ft | 397 kts | 8° |
| 2026-05-06 17:42 | 50.80158 | 14.19300 | 18421 ft | 399 kts | 8° |
| 2026-05-06 17:42 | 50.82917 | 14.19963 | 18759 ft | 402 kts | 8° |
| 2026-05-06 17:43 | 50.85686 | 14.20630 | 19085 ft | 405 kts | 8° |
| 2026-05-06 17:43 | 50.88485 | 14.21274 | 19401 ft | 407 kts | 6° |
| 2026-05-06 17:43 | 50.91318 | 14.21369 | 19692 ft | 409 kts | 355° |
| 2026-05-06 17:43 | 50.94143 | 14.20792 | 20003 ft | 410 kts | 351° |
| 2026-05-06 17:44 | 50.96973 | 14.20100 | 20285 ft | 413 kts | 351° |
| 2026-05-06 17:44 | 50.99820 | 14.19411 | 20550 ft | 415 kts | 351° |
| 2026-05-06 17:44 | 51.02689 | 14.18755 | 20808 ft | 417 kts | 352° |
| 2026-05-06 17:44 | 51.05568 | 14.18119 | 21060 ft | 419 kts | 352° |
| 2026-05-06 17:45 | 51.08463 | 14.17503 | 21302 ft | 421 kts | 352° |
| 2026-05-06 17:45 | 51.11371 | 14.16925 | 21532 ft | 422 kts | 353° |
| 2026-05-06 17:45 | 51.14296 | 14.16359 | 21753 ft | 424 kts | 353° |
| 2026-05-06 17:45 | 51.17232 | 14.15791 | 21966 ft | 426 kts | 353° |
| 2026-05-06 17:46 | 51.20179 | 14.15217 | 22174 ft | 427 kts | 353° |
| 2026-05-06 17:46 | 51.23133 | 14.14636 | 22369 ft | 429 kts | 353° |
| 2026-05-06 17:46 | 51.26099 | 14.14049 | 22555 ft | 430 kts | 353° |
| 2026-05-06 17:46 | 51.29078 | 14.13457 | 22737 ft | 432 kts | 352° |